sensor_id;sensor_type;location;lat;lon;timestamp;temperature;humidity
32097;DHT22;18610;49.916;8.284;2023-05-16T00:00:57;13.40;99.90
32097;DHT22;18610;49.916;8.284;2023-05-16T00:03:25;13.30;99.90
32097;DHT22;18610;49.916;8.284;2023-05-16T00:05:52;13.30;99.90
32097;DHT22;18610;49.916;8.284;2023-05-16T00:08:18;13.30;99.90
32097;DHT22;18610;49.916;8.284;2023-05-16T00:10:45;13.30;99.90
32097;DHT22;18610;49.916;8.284;2023-05-16T00:13:12;13.30;99.90
32097;DHT22;18610;49.916;8.284;2023-05-16T00:15:39;13.20;99.90
32097;DHT22;18610;49.916;8.284;2023-05-16T00:18:06;13.20;99.90
32097;DHT22;18610;49.916;8.284;2023-05-16T00:20:34;13.20;99.90
32097;DHT22;18610;49.916;8.284;2023-05-16T00:23:02;13.20;99.90
32097;DHT22;18610;49.916;8.284;2023-05-16T00:25:28;13.20;99.90
32097;DHT22;18610;49.916;8.284;2023-05-16T00:27:55;13.20;99.90
32097;DHT22;18610;49.916;8.284;2023-05-16T00:30:22;13.20;99.90
32097;DHT22;18610;49.916;8.284;2023-05-16T00:32:48;13.20;99.90
32097;DHT22;18610;49.916;8.284;2023-05-16T00:35:15;13.20;99.90
32097;DHT22;18610;49.916;8.284;2023-05-16T00:37:43;13.20;99.90
32097;DHT22;18610;49.916;8.284;2023-05-16T00:40:10;13.10;99.90
32097;DHT22;18610;49.916;8.284;2023-05-16T00:42:37;13.10;99.90
32097;DHT22;18610;49.916;8.284;2023-05-16T00:45:05;13.10;99.90
32097;DHT22;18610;49.916;8.284;2023-05-16T00:47:32;13.10;99.90
32097;DHT22;18610;49.916;8.284;2023-05-16T00:49:59;13.00;99.90
32097;DHT22;18610;49.916;8.284;2023-05-16T00:52:26;13.00;99.90
32097;DHT22;18610;49.916;8.284;2023-05-16T00:54:54;13.10;99.90
32097;DHT22;18610;49.916;8.284;2023-05-16T00:57:21;13.00;99.90
32097;DHT22;18610;49.916;8.284;2023-05-16T00:59:48;13.00;99.90
32097;DHT22;18610;49.916;8.284;2023-05-16T01:02:15;13.00;99.90
32097;DHT22;18610;49.916;8.284;2023-05-16T01:04:42;13.00;99.90
32097;DHT22;18610;49.916;8.284;2023-05-16T01:07:09;13.00;99.90
32097;DHT22;18610;49.916;8.284;2023-05-16T01:09:36;13.00;99.90
32097;DHT22;18610;49.916;8.284;2023-05-16T01:12:10;13.00;99.90
32097;DHT22;18610;49.916;8.284;2023-05-16T01:14:45;13.00;99.90
32097;DHT22;18610;49.916;8.284;2023-05-16T01:17:20;13.00;99.90
32097;DHT22;18610;49.916;8.284;2023-05-16T01:20:01;13.00;99.90
32097;DHT22;18610;49.916;8.284;2023-05-16T01:22:37;13.00;99.90
32097;DHT22;18610;49.916;8.284;2023-05-16T01:25:18;12.90;99.90
32097;DHT22;18610;49.916;8.284;2023-05-16T01:27:49;13.00;99.90
32097;DHT22;18610;49.916;8.284;2023-05-16T01:30:18;13.00;99.90
32097;DHT22;18610;49.916;8.284;2023-05-16T01:32:45;13.00;99.90
32097;DHT22;18610;49.916;8.284;2023-05-16T01:35:15;13.00;99.90
32097;DHT22;18610;49.916;8.284;2023-05-16T01:37:47;13.00;99.90
32097;DHT22;18610;49.916;8.284;2023-05-16T01:40:26;13.00;99.90
32097;DHT22;18610;49.916;8.284;2023-05-16T01:42:56;13.00;99.90
32097;DHT22;18610;49.916;8.284;2023-05-16T01:45:28;13.00;99.90
32097;DHT22;18610;49.916;8.284;2023-05-16T01:48:09;13.00;99.90
32097;DHT22;18610;49.916;8.284;2023-05-16T01:50:40;13.00;99.90
32097;DHT22;18610;49.916;8.284;2023-05-16T01:53:13;13.00;99.90
32097;DHT22;18610;49.916;8.284;2023-05-16T01:55:43;12.90;99.90
32097;DHT22;18610;49.916;8.284;2023-05-16T01:58:14;12.90;99.90
32097;DHT22;18610;49.916;8.284;2023-05-16T02:00:41;12.90;99.90
32097;DHT22;18610;49.916;8.284;2023-05-16T02:03:08;12.80;99.90
32097;DHT22;18610;49.916;8.284;2023-05-16T02:05:35;12.80;99.90
32097;DHT22;18610;49.916;8.284;2023-05-16T02:08:02;12.80;99.90
32097;DHT22;18610;49.916;8.284;2023-05-16T02:10:29;12.70;99.90
32097;DHT22;18610;49.916;8.284;2023-05-16T02:12:56;12.80;99.90
32097;DHT22;18610;49.916;8.284;2023-05-16T02:15:24;12.70;99.90
32097;DHT22;18610;49.916;8.284;2023-05-16T02:17:50;12.70;99.90
32097;DHT22;18610;49.916;8.284;2023-05-16T02:20:17;12.70;99.90
32097;DHT22;18610;49.916;8.284;2023-05-16T02:22:44;12.70;99.90
32097;DHT22;18610;49.916;8.284;2023-05-16T02:25:13;12.60;99.90
32097;DHT22;18610;49.916;8.284;2023-05-16T02:27:40;12.60;99.90
32097;DHT22;18610;49.916;8.284;2023-05-16T02:30:08;12.50;99.90
32097;DHT22;18610;49.916;8.284;2023-05-16T02:32:36;12.50;99.90
32097;DHT22;18610;49.916;8.284;2023-05-16T02:35:04;12.40;99.90
32097;DHT22;18610;49.916;8.284;2023-05-16T02:37:31;12.40;99.90
32097;DHT22;18610;49.916;8.284;2023-05-16T02:39:57;12.30;99.90
32097;DHT22;18610;49.916;8.284;2023-05-16T02:42:25;12.30;99.90
32097;DHT22;18610;49.916;8.284;2023-05-16T02:44:52;12.20;99.90
32097;DHT22;18610;49.916;8.284;2023-05-16T02:47:19;12.20;99.90
32097;DHT22;18610;49.916;8.284;2023-05-16T02:49:48;12.10;99.90
32097;DHT22;18610;49.916;8.284;2023-05-16T02:52:16;12.10;99.90
32097;DHT22;18610;49.916;8.284;2023-05-16T02:54:43;12.10;99.90
32097;DHT22;18610;49.916;8.284;2023-05-16T02:57:10;12.00;99.90
32097;DHT22;18610;49.916;8.284;2023-05-16T02:59:37;12.10;99.90
32097;DHT22;18610;49.916;8.284;2023-05-16T03:02:03;12.00;99.90
32097;DHT22;18610;49.916;8.284;2023-05-16T03:04:30;12.10;99.90
32097;DHT22;18610;49.916;8.284;2023-05-16T03:06:58;12.10;99.90
32097;DHT22;18610;49.916;8.284;2023-05-16T03:09:25;12.10;99.90
32097;DHT22;18610;49.916;8.284;2023-05-16T03:11:52;12.10;99.90
32097;DHT22;18610;49.916;8.284;2023-05-16T03:14:18;12.10;99.90
32097;DHT22;18610;49.916;8.284;2023-05-16T03:16:45;12.10;99.90
32097;DHT22;18610;49.916;8.284;2023-05-16T03:19:12;12.20;99.90
32097;DHT22;18610;49.916;8.284;2023-05-16T03:21:39;12.20;99.90
32097;DHT22;18610;49.916;8.284;2023-05-16T03:24:07;12.20;99.90
32097;DHT22;18610;49.916;8.284;2023-05-16T03:26:34;12.20;99.90
32097;DHT22;18610;49.916;8.284;2023-05-16T03:29:01;12.30;99.90
32097;DHT22;18610;49.916;8.284;2023-05-16T03:31:32;12.30;99.90
32097;DHT22;18610;49.916;8.284;2023-05-16T03:33:59;12.30;99.90
32097;DHT22;18610;49.916;8.284;2023-05-16T03:36:26;12.30;99.90
32097;DHT22;18610;49.916;8.284;2023-05-16T03:38:53;12.40;99.90
32097;DHT22;18610;49.916;8.284;2023-05-16T03:41:21;12.40;99.90
32097;DHT22;18610;49.916;8.284;2023-05-16T03:43:48;12.40;99.90
32097;DHT22;18610;49.916;8.284;2023-05-16T03:46:15;12.40;99.90
32097;DHT22;18610;49.916;8.284;2023-05-16T03:48:42;12.40;99.90
32097;DHT22;18610;49.916;8.284;2023-05-16T03:51:08;12.40;99.90
32097;DHT22;18610;49.916;8.284;2023-05-16T03:53:36;12.40;99.90
32097;DHT22;18610;49.916;8.284;2023-05-16T03:56:03;12.50;99.90
32097;DHT22;18610;49.916;8.284;2023-05-16T03:58:31;12.50;99.90
32097;DHT22;18610;49.916;8.284;2023-05-16T04:00:58;12.50;99.90
32097;DHT22;18610;49.916;8.284;2023-05-16T04:03:25;12.50;99.90
32097;DHT22;18610;49.916;8.284;2023-05-16T04:05:53;12.50;99.90
32097;DHT22;18610;49.916;8.284;2023-05-16T04:08:20;12.50;99.90
32097;DHT22;18610;49.916;8.284;2023-05-16T04:10:47;12.60;99.90
32097;DHT22;18610;49.916;8.284;2023-05-16T04:13:14;12.50;99.90
32097;DHT22;18610;49.916;8.284;2023-05-16T04:15:42;12.60;99.90
32097;DHT22;18610;49.916;8.284;2023-05-16T04:18:09;12.60;99.90
32097;DHT22;18610;49.916;8.284;2023-05-16T04:20:36;12.60;99.90
32097;DHT22;18610;49.916;8.284;2023-05-16T04:23:02;12.60;99.90
32097;DHT22;18610;49.916;8.284;2023-05-16T04:25:30;12.70;99.90
32097;DHT22;18610;49.916;8.284;2023-05-16T04:27:57;12.70;99.90
32097;DHT22;18610;49.916;8.284;2023-05-16T04:30:23;12.70;99.90
32097;DHT22;18610;49.916;8.284;2023-05-16T04:32:51;12.70;99.90
32097;DHT22;18610;49.916;8.284;2023-05-16T04:35:18;12.70;99.90
32097;DHT22;18610;49.916;8.284;2023-05-16T04:37:46;12.80;99.90
32097;DHT22;18610;49.916;8.284;2023-05-16T04:40:13;12.80;99.90
32097;DHT22;18610;49.916;8.284;2023-05-16T04:42:40;12.80;99.90
32097;DHT22;18610;49.916;8.284;2023-05-16T04:45:07;12.80;99.90
32097;DHT22;18610;49.916;8.284;2023-05-16T04:47:36;12.80;99.90
32097;DHT22;18610;49.916;8.284;2023-05-16T04:50:05;12.90;99.90
32097;DHT22;18610;49.916;8.284;2023-05-16T04:52:33;12.90;99.90
32097;DHT22;18610;49.916;8.284;2023-05-16T04:55:00;12.80;99.90
32097;DHT22;18610;49.916;8.284;2023-05-16T04:57:27;12.80;99.90
32097;DHT22;18610;49.916;8.284;2023-05-16T04:59:53;12.90;99.90
32097;DHT22;18610;49.916;8.284;2023-05-16T05:02:21;12.90;99.90
32097;DHT22;18610;49.916;8.284;2023-05-16T05:04:48;13.00;99.90
32097;DHT22;18610;49.916;8.284;2023-05-16T05:07:16;13.00;99.90
32097;DHT22;18610;49.916;8.284;2023-05-16T05:09:43;13.00;99.90
32097;DHT22;18610;49.916;8.284;2023-05-16T05:12:10;13.00;99.90
32097;DHT22;18610;49.916;8.284;2023-05-16T05:14:37;13.10;99.90
32097;DHT22;18610;49.916;8.284;2023-05-16T05:17:04;13.00;99.90
32097;DHT22;18610;49.916;8.284;2023-05-16T05:19:30;13.10;99.90
32097;DHT22;18610;49.916;8.284;2023-05-16T05:21:57;13.10;99.90
32097;DHT22;18610;49.916;8.284;2023-05-16T05:24:25;13.10;99.90
32097;DHT22;18610;49.916;8.284;2023-05-16T05:26:52;13.20;99.90
32097;DHT22;18610;49.916;8.284;2023-05-16T05:29:19;13.20;99.90
32097;DHT22;18610;49.916;8.284;2023-05-16T05:31:45;13.30;99.90
32097;DHT22;18610;49.916;8.284;2023-05-16T05:34:12;13.30;99.90
32097;DHT22;18610;49.916;8.284;2023-05-16T05:36:39;13.40;99.90
32097;DHT22;18610;49.916;8.284;2023-05-16T05:39:06;13.50;99.90
32097;DHT22;18610;49.916;8.284;2023-05-16T05:41:34;13.50;99.90
32097;DHT22;18610;49.916;8.284;2023-05-16T05:44:01;13.50;99.90
32097;DHT22;18610;49.916;8.284;2023-05-16T05:46:28;13.50;99.90
32097;DHT22;18610;49.916;8.284;2023-05-16T05:48:55;13.50;99.90
32097;DHT22;18610;49.916;8.284;2023-05-16T05:51:21;13.60;99.90
32097;DHT22;18610;49.916;8.284;2023-05-16T05:53:48;13.60;99.90
32097;DHT22;18610;49.916;8.284;2023-05-16T05:56:15;13.60;99.90
32097;DHT22;18610;49.916;8.284;2023-05-16T05:58:44;13.70;99.90
32097;DHT22;18610;49.916;8.284;2023-05-16T06:01:11;13.70;99.90
32097;DHT22;18610;49.916;8.284;2023-05-16T06:03:38;13.70;99.90
32097;DHT22;18610;49.916;8.284;2023-05-16T06:06:05;13.70;99.90
32097;DHT22;18610;49.916;8.284;2023-05-16T06:08:32;13.70;99.90
32097;DHT22;18610;49.916;8.284;2023-05-16T06:10:59;13.60;99.90
32097;DHT22;18610;49.916;8.284;2023-05-16T06:13:26;13.60;99.90
32097;DHT22;18610;49.916;8.284;2023-05-16T06:15:54;13.60;99.90
32097;DHT22;18610;49.916;8.284;2023-05-16T06:18:21;13.60;99.90
32097;DHT22;18610;49.916;8.284;2023-05-16T06:20:47;13.60;99.90
32097;DHT22;18610;49.916;8.284;2023-05-16T06:23:15;13.50;99.90
32097;DHT22;18610;49.916;8.284;2023-05-16T06:25:42;13.50;99.90
32097;DHT22;18610;49.916;8.284;2023-05-16T06:28:08;13.50;99.90
32097;DHT22;18610;49.916;8.284;2023-05-16T06:30:35;13.40;99.90
32097;DHT22;18610;49.916;8.284;2023-05-16T06:33:03;13.30;99.90
32097;DHT22;18610;49.916;8.284;2023-05-16T06:35:30;13.30;99.90
32097;DHT22;18610;49.916;8.284;2023-05-16T06:37:57;13.30;99.90
32097;DHT22;18610;49.916;8.284;2023-05-16T06:40:24;13.30;99.90
32097;DHT22;18610;49.916;8.284;2023-05-16T06:42:50;13.20;99.90
32097;DHT22;18610;49.916;8.284;2023-05-16T06:45:18;13.20;99.90
32097;DHT22;18610;49.916;8.284;2023-05-16T06:47:45;13.20;99.90
32097;DHT22;18610;49.916;8.284;2023-05-16T06:50:13;13.20;99.90
32097;DHT22;18610;49.916;8.284;2023-05-16T06:52:40;13.10;99.90
32097;DHT22;18610;49.916;8.284;2023-05-16T06:55:08;13.10;99.90
32097;DHT22;18610;49.916;8.284;2023-05-16T06:57:36;13.10;99.90
32097;DHT22;18610;49.916;8.284;2023-05-16T07:00:04;13.10;99.90
32097;DHT22;18610;49.916;8.284;2023-05-16T07:02:31;13.10;99.90
32097;DHT22;18610;49.916;8.284;2023-05-16T07:05:00;13.10;99.90
32097;DHT22;18610;49.916;8.284;2023-05-16T07:07:28;13.10;99.90
32097;DHT22;18610;49.916;8.284;2023-05-16T07:09:55;13.00;99.90
32097;DHT22;18610;49.916;8.284;2023-05-16T07:12:22;13.00;99.90
32097;DHT22;18610;49.916;8.284;2023-05-16T07:14:49;13.00;99.90
32097;DHT22;18610;49.916;8.284;2023-05-16T07:17:16;12.90;99.90
32097;DHT22;18610;49.916;8.284;2023-05-16T07:19:43;13.00;99.90
32097;DHT22;18610;49.916;8.284;2023-05-16T07:22:09;12.90;99.90
32097;DHT22;18610;49.916;8.284;2023-05-16T07:24:38;12.90;99.90
32097;DHT22;18610;49.916;8.284;2023-05-16T07:27:04;12.90;99.90
32097;DHT22;18610;49.916;8.284;2023-05-16T07:29:32;12.90;99.90
32097;DHT22;18610;49.916;8.284;2023-05-16T07:31:59;13.00;99.90
32097;DHT22;18610;49.916;8.284;2023-05-16T07:34:26;13.00;99.90
32097;DHT22;18610;49.916;8.284;2023-05-16T07:36:53;13.00;99.90
32097;DHT22;18610;49.916;8.284;2023-05-16T07:39:20;13.00;99.90
32097;DHT22;18610;49.916;8.284;2023-05-16T07:41:49;13.00;99.90
32097;DHT22;18610;49.916;8.284;2023-05-16T07:44:15;13.00;99.90
32097;DHT22;18610;49.916;8.284;2023-05-16T07:46:42;12.90;99.90
32097;DHT22;18610;49.916;8.284;2023-05-16T07:49:09;13.00;99.90
32097;DHT22;18610;49.916;8.284;2023-05-16T07:51:36;13.00;99.90
32097;DHT22;18610;49.916;8.284;2023-05-16T07:54:04;13.00;99.90
32097;DHT22;18610;49.916;8.284;2023-05-16T07:56:31;12.90;99.90
32097;DHT22;18610;49.916;8.284;2023-05-16T07:58:59;13.00;99.90
32097;DHT22;18610;49.916;8.284;2023-05-16T08:01:26;13.00;99.90
32097;DHT22;18610;49.916;8.284;2023-05-16T08:03:53;13.00;99.90
32097;DHT22;18610;49.916;8.284;2023-05-16T08:06:19;13.00;99.90
32097;DHT22;18610;49.916;8.284;2023-05-16T08:08:46;13.00;99.90
32097;DHT22;18610;49.916;8.284;2023-05-16T08:11:14;13.00;99.90
32097;DHT22;18610;49.916;8.284;2023-05-16T08:13:41;13.00;99.90
32097;DHT22;18610;49.916;8.284;2023-05-16T08:16:10;13.00;99.90
32097;DHT22;18610;49.916;8.284;2023-05-16T08:18:37;13.00;99.90
32097;DHT22;18610;49.916;8.284;2023-05-16T08:21:04;13.10;99.90
32097;DHT22;18610;49.916;8.284;2023-05-16T08:23:30;13.10;99.90
32097;DHT22;18610;49.916;8.284;2023-05-16T08:25:57;13.10;99.90
32097;DHT22;18610;49.916;8.284;2023-05-16T08:28:24;13.10;99.90
32097;DHT22;18610;49.916;8.284;2023-05-16T08:30:51;13.20;99.90
32097;DHT22;18610;49.916;8.284;2023-05-16T08:33:19;13.20;99.90
32097;DHT22;18610;49.916;8.284;2023-05-16T08:35:46;13.20;99.90
32097;DHT22;18610;49.916;8.284;2023-05-16T08:38:14;13.10;99.90
32097;DHT22;18610;49.916;8.284;2023-05-16T08:40:42;13.10;99.90
32097;DHT22;18610;49.916;8.284;2023-05-16T08:43:08;13.10;99.90
32097;DHT22;18610;49.916;8.284;2023-05-16T08:45:35;13.10;99.90
32097;DHT22;18610;49.916;8.284;2023-05-16T08:48:04;13.10;99.90
32097;DHT22;18610;49.916;8.284;2023-05-16T08:50:32;13.10;99.90
32097;DHT22;18610;49.916;8.284;2023-05-16T08:53:04;13.10;99.90
32097;DHT22;18610;49.916;8.284;2023-05-16T08:55:32;13.10;99.90
32097;DHT22;18610;49.916;8.284;2023-05-16T08:58:00;13.20;99.90
32097;DHT22;18610;49.916;8.284;2023-05-16T09:00:27;13.20;99.90
32097;DHT22;18610;49.916;8.284;2023-05-16T09:02:54;13.30;99.90
32097;DHT22;18610;49.916;8.284;2023-05-16T09:05:21;13.30;99.90
32097;DHT22;18610;49.916;8.284;2023-05-16T09:07:49;13.30;99.90
32097;DHT22;18610;49.916;8.284;2023-05-16T09:10:16;13.40;99.90
32097;DHT22;18610;49.916;8.284;2023-05-16T09:12:43;13.40;99.90
32097;DHT22;18610;49.916;8.284;2023-05-16T09:15:10;13.50;99.90
32097;DHT22;18610;49.916;8.284;2023-05-16T09:17:39;13.50;99.90
32097;DHT22;18610;49.916;8.284;2023-05-16T09:20:11;13.60;99.90
32097;DHT22;18610;49.916;8.284;2023-05-16T09:22:38;13.60;99.90
32097;DHT22;18610;49.916;8.284;2023-05-16T09:25:07;13.60;99.90
32097;DHT22;18610;49.916;8.284;2023-05-16T09:27:34;13.60;99.90
32097;DHT22;18610;49.916;8.284;2023-05-16T09:30:01;13.60;99.90
32097;DHT22;18610;49.916;8.284;2023-05-16T09:32:30;13.50;99.90
32097;DHT22;18610;49.916;8.284;2023-05-16T09:34:57;13.50;99.90
32097;DHT22;18610;49.916;8.284;2023-05-16T09:37:24;13.50;99.90
32097;DHT22;18610;49.916;8.284;2023-05-16T09:39:52;13.50;99.90
32097;DHT22;18610;49.916;8.284;2023-05-16T09:42:21;13.50;99.90
32097;DHT22;18610;49.916;8.284;2023-05-16T09:44:49;13.50;99.90
32097;DHT22;18610;49.916;8.284;2023-05-16T09:47:16;13.50;99.90
32097;DHT22;18610;49.916;8.284;2023-05-16T09:49:44;13.60;99.90
32097;DHT22;18610;49.916;8.284;2023-05-16T09:52:12;13.50;99.90
32097;DHT22;18610;49.916;8.284;2023-05-16T09:54:39;13.50;99.90
32097;DHT22;18610;49.916;8.284;2023-05-16T09:57:06;13.50;99.90
32097;DHT22;18610;49.916;8.284;2023-05-16T09:59:36;13.40;99.90
32097;DHT22;18610;49.916;8.284;2023-05-16T10:02:04;13.40;99.90
32097;DHT22;18610;49.916;8.284;2023-05-16T10:04:32;13.40;99.90
32097;DHT22;18610;49.916;8.284;2023-05-16T10:07:01;13.30;99.90
32097;DHT22;18610;49.916;8.284;2023-05-16T10:09:31;13.30;99.90
32097;DHT22;18610;49.916;8.284;2023-05-16T10:12:00;13.30;99.90
32097;DHT22;18610;49.916;8.284;2023-05-16T10:14:29;13.40;99.90
32097;DHT22;18610;49.916;8.284;2023-05-16T10:16:59;13.40;99.90
32097;DHT22;18610;49.916;8.284;2023-05-16T10:19:27;13.40;99.90
32097;DHT22;18610;49.916;8.284;2023-05-16T10:21:57;13.50;99.90
32097;DHT22;18610;49.916;8.284;2023-05-16T10:24:28;13.50;99.90
32097;DHT22;18610;49.916;8.284;2023-05-16T10:26:57;13.50;99.90
32097;DHT22;18610;49.916;8.284;2023-05-16T10:29:24;13.60;99.90
32097;DHT22;18610;49.916;8.284;2023-05-16T10:31:51;13.60;99.90
32097;DHT22;18610;49.916;8.284;2023-05-16T10:34:20;13.70;99.90
32097;DHT22;18610;49.916;8.284;2023-05-16T10:36:47;13.80;99.90
32097;DHT22;18610;49.916;8.284;2023-05-16T10:39:14;13.80;99.90
32097;DHT22;18610;49.916;8.284;2023-05-16T10:41:42;13.90;99.90
32097;DHT22;18610;49.916;8.284;2023-05-16T10:44:12;14.00;99.90
32097;DHT22;18610;49.916;8.284;2023-05-16T10:46:40;14.10;99.90
32097;DHT22;18610;49.916;8.284;2023-05-16T10:49:21;14.20;99.90
32097;DHT22;18610;49.916;8.284;2023-05-16T10:52:02;14.10;99.90
32097;DHT22;18610;49.916;8.284;2023-05-16T10:54:34;14.10;99.90
32097;DHT22;18610;49.916;8.284;2023-05-16T10:57:05;14.10;99.90
32097;DHT22;18610;49.916;8.284;2023-05-16T10:59:43;14.10;99.90
32097;DHT22;18610;49.916;8.284;2023-05-16T11:02:21;14.20;99.70
32097;DHT22;18610;49.916;8.284;2023-05-16T11:04:51;14.20;99.40
32097;DHT22;18610;49.916;8.284;2023-05-16T11:07:19;14.30;98.40
32097;DHT22;18610;49.916;8.284;2023-05-16T11:10:01;14.30;98.50
32097;DHT22;18610;49.916;8.284;2023-05-16T11:12:35;14.30;98.50
32097;DHT22;18610;49.916;8.284;2023-05-16T11:15:17;14.40;98.30
32097;DHT22;18610;49.916;8.284;2023-05-16T11:17:44;14.40;98.50
32097;DHT22;18610;49.916;8.284;2023-05-16T11:20:24;14.40;98.60
32097;DHT22;18610;49.916;8.284;2023-05-16T11:25:59;14.40;98.10
32097;DHT22;18610;49.916;8.284;2023-05-16T11:28:26;14.40;98.30
32097;DHT22;18610;49.916;8.284;2023-05-16T11:30:56;14.40;98.80
32097;DHT22;18610;49.916;8.284;2023-05-16T11:33:24;14.40;98.80
32097;DHT22;18610;49.916;8.284;2023-05-16T11:36:03;14.50;98.90
32097;DHT22;18610;49.916;8.284;2023-05-16T11:38:31;14.50;98.10
32097;DHT22;18610;49.916;8.284;2023-05-16T11:41:03;14.60;97.90
32097;DHT22;18610;49.916;8.284;2023-05-16T11:43:37;14.60;97.10
32097;DHT22;18610;49.916;8.284;2023-05-16T11:46:05;14.70;97.40
32097;DHT22;18610;49.916;8.284;2023-05-16T11:48:32;14.90;97.70
32097;DHT22;18610;49.916;8.284;2023-05-16T11:50:59;15.10;97.30
32097;DHT22;18610;49.916;8.284;2023-05-16T11:53:27;15.30;96.60
32097;DHT22;18610;49.916;8.284;2023-05-16T11:55:55;15.50;96.50
32097;DHT22;18610;49.916;8.284;2023-05-16T11:58:24;15.80;95.50
32097;DHT22;18610;49.916;8.284;2023-05-16T12:00:51;16.10;94.80
32097;DHT22;18610;49.916;8.284;2023-05-16T12:03:18;16.30;94.30
32097;DHT22;18610;49.916;8.284;2023-05-16T12:05:49;16.60;93.80
32097;DHT22;18610;49.916;8.284;2023-05-16T12:08:17;16.90;92.90
32097;DHT22;18610;49.916;8.284;2023-05-16T12:10:47;17.20;91.50
32097;DHT22;18610;49.916;8.284;2023-05-16T12:13:15;17.50;91.50
32097;DHT22;18610;49.916;8.284;2023-05-16T12:15:42;17.90;90.20
32097;DHT22;18610;49.916;8.284;2023-05-16T12:18:09;18.50;89.50
32097;DHT22;18610;49.916;8.284;2023-05-16T12:20:36;19.10;84.80
32097;DHT22;18610;49.916;8.284;2023-05-16T12:23:03;19.70;82.00
32097;DHT22;18610;49.916;8.284;2023-05-16T12:25:31;20.20;74.80
32097;DHT22;18610;49.916;8.284;2023-05-16T12:28:00;20.60;70.80
32097;DHT22;18610;49.916;8.284;2023-05-16T12:30:29;20.90;65.10
32097;DHT22;18610;49.916;8.284;2023-05-16T12:32:56;21.20;65.40
32097;DHT22;18610;49.916;8.284;2023-05-16T12:35:23;21.50;64.10
32097;DHT22;18610;49.916;8.284;2023-05-16T12:37:51;21.60;59.30
32097;DHT22;18610;49.916;8.284;2023-05-16T12:40:18;21.60;59.20
32097;DHT22;18610;49.916;8.284;2023-05-16T12:42:48;21.70;59.10
32097;DHT22;18610;49.916;8.284;2023-05-16T12:45:17;21.90;58.00
32097;DHT22;18610;49.916;8.284;2023-05-16T12:47:44;21.90;55.90
32097;DHT22;18610;49.916;8.284;2023-05-16T12:50:11;22.10;54.20
32097;DHT22;18610;49.916;8.284;2023-05-16T12:52:46;22.00;53.10
32097;DHT22;18610;49.916;8.284;2023-05-16T12:55:14;21.80;53.10
32097;DHT22;18610;49.916;8.284;2023-05-16T12:57:41;21.60;53.10
32097;DHT22;18610;49.916;8.284;2023-05-16T13:00:10;21.30;53.40
32097;DHT22;18610;49.916;8.284;2023-05-16T13:02:38;21.30;54.60
32097;DHT22;18610;49.916;8.284;2023-05-16T13:05:06;21.30;54.20
32097;DHT22;18610;49.916;8.284;2023-05-16T13:07:33;21.20;54.10
32097;DHT22;18610;49.916;8.284;2023-05-16T13:10:00;21.10;53.60
32097;DHT22;18610;49.916;8.284;2023-05-16T13:12:27;20.90;52.60
32097;DHT22;18610;49.916;8.284;2023-05-16T13:14:54;21.00;53.60
32097;DHT22;18610;49.916;8.284;2023-05-16T13:17:20;21.40;54.10
32097;DHT22;18610;49.916;8.284;2023-05-16T13:19:49;21.80;52.30
32097;DHT22;18610;49.916;8.284;2023-05-16T13:22:16;22.00;50.90
32097;DHT22;18610;49.916;8.284;2023-05-16T13:24:43;22.00;48.60
32097;DHT22;18610;49.916;8.284;2023-05-16T13:27:10;21.90;48.70
32097;DHT22;18610;49.916;8.284;2023-05-16T13:29:36;21.80;50.30
32097;DHT22;18610;49.916;8.284;2023-05-16T13:32:04;21.60;51.00
32097;DHT22;18610;49.916;8.284;2023-05-16T13:34:31;21.40;51.40
32097;DHT22;18610;49.916;8.284;2023-05-16T13:37:00;21.40;51.30
32097;DHT22;18610;49.916;8.284;2023-05-16T13:39:27;21.30;51.10
32097;DHT22;18610;49.916;8.284;2023-05-16T13:41:53;21.40;49.30
32097;DHT22;18610;49.916;8.284;2023-05-16T13:44:20;21.50;49.10
32097;DHT22;18610;49.916;8.284;2023-05-16T13:46:47;21.70;48.60
32097;DHT22;18610;49.916;8.284;2023-05-16T13:49:14;21.90;48.10
32097;DHT22;18610;49.916;8.284;2023-05-16T13:51:41;22.00;49.10
32097;DHT22;18610;49.916;8.284;2023-05-16T13:54:09;21.80;48.70
32097;DHT22;18610;49.916;8.284;2023-05-16T13:56:35;21.70;49.90
32097;DHT22;18610;49.916;8.284;2023-05-16T13:59:02;21.60;49.50
32097;DHT22;18610;49.916;8.284;2023-05-16T14:01:29;21.60;50.30
32097;DHT22;18610;49.916;8.284;2023-05-16T14:03:56;21.50;50.20
32097;DHT22;18610;49.916;8.284;2023-05-16T14:06:22;21.70;50.10
32097;DHT22;18610;49.916;8.284;2023-05-16T14:08:49;21.50;48.60
32097;DHT22;18610;49.916;8.284;2023-05-16T14:11:17;21.30;48.50
32097;DHT22;18610;49.916;8.284;2023-05-16T14:13:50;21.00;50.30
32097;DHT22;18610;49.916;8.284;2023-05-16T14:16:17;20.90;50.70
32097;DHT22;18610;49.916;8.284;2023-05-16T14:18:44;20.90;50.30
32097;DHT22;18610;49.916;8.284;2023-05-16T14:21:10;20.80;50.30
32097;DHT22;18610;49.916;8.284;2023-05-16T14:23:37;20.80;50.40
32097;DHT22;18610;49.916;8.284;2023-05-16T14:26:04;20.80;50.10
32097;DHT22;18610;49.916;8.284;2023-05-16T14:28:32;20.70;50.20
32097;DHT22;18610;49.916;8.284;2023-05-16T14:31:00;20.60;50.10
32097;DHT22;18610;49.916;8.284;2023-05-16T14:33:27;20.30;50.40
32097;DHT22;18610;49.916;8.284;2023-05-16T14:35:53;20.20;51.20
32097;DHT22;18610;49.916;8.284;2023-05-16T14:38:20;20.30;51.70
32097;DHT22;18610;49.916;8.284;2023-05-16T14:40:47;20.50;52.20
32097;DHT22;18610;49.916;8.284;2023-05-16T14:43:13;20.50;52.20
32097;DHT22;18610;49.916;8.284;2023-05-16T14:45:42;20.50;52.00
32097;DHT22;18610;49.916;8.284;2023-05-16T14:48:08;20.40;50.50
32097;DHT22;18610;49.916;8.284;2023-05-16T14:50:35;20.40;50.20
32097;DHT22;18610;49.916;8.284;2023-05-16T14:53:02;20.50;50.90
32097;DHT22;18610;49.916;8.284;2023-05-16T14:55:29;20.60;50.90
32097;DHT22;18610;49.916;8.284;2023-05-16T14:57:55;20.60;50.80
32097;DHT22;18610;49.916;8.284;2023-05-16T15:00:23;20.50;50.50
32097;DHT22;18610;49.916;8.284;2023-05-16T15:02:51;20.30;50.90
32097;DHT22;18610;49.916;8.284;2023-05-16T15:05:18;20.00;51.40
32097;DHT22;18610;49.916;8.284;2023-05-16T15:07:45;19.80;52.40
32097;DHT22;18610;49.916;8.284;2023-05-16T15:10:12;19.60;51.50
32097;DHT22;18610;49.916;8.284;2023-05-16T15:12:38;19.50;50.70
32097;DHT22;18610;49.916;8.284;2023-05-16T15:15:08;19.50;50.80
32097;DHT22;18610;49.916;8.284;2023-05-16T15:17:36;19.60;51.00
32097;DHT22;18610;49.916;8.284;2023-05-16T15:20:05;19.60;51.50
32097;DHT22;18610;49.916;8.284;2023-05-16T15:22:33;19.60;52.30
32097;DHT22;18610;49.916;8.284;2023-05-16T15:25:00;19.60;51.80
32097;DHT22;18610;49.916;8.284;2023-05-16T15:27:30;19.50;51.20
32097;DHT22;18610;49.916;8.284;2023-05-16T15:29:56;19.30;52.30
32097;DHT22;18610;49.916;8.284;2023-05-16T15:32:23;19.10;52.00
32097;DHT22;18610;49.916;8.284;2023-05-16T15:34:50;19.10;51.30
32097;DHT22;18610;49.916;8.284;2023-05-16T15:37:19;19.30;51.60